Palm Bay, FL

7:00 PM EST on December 10, 2016 (GMT -0500)
| | Change Station

Elev -9999 ft 0.00 °N, 0.00 °E | Updated 6 minutes ago

Mostly Cloudy
Mostly Cloudy
75 °F
Feels Like 75 °F
N
10
Wind Variable Wind from ENE
Gusts 15 mph

Today
High -- | Low -- °F
--% Chance of Precip.
Yesterday
High -- | Low -- °F
Precip. -- in
Pressure 30.30 in
Visibility 10.0 miles
Clouds Mostly Cloudy 5500 ft
Dew Point 63 °F
Humidity 65%
Rainfall --
Snow Depth Not available.
7:03 AM 5:27 PM
Waxing Gibbous, 87% visible
METAR KMLB 102353Z 04012KT 10SM BKN055 19/13 A3030 RMK AO2 SLP261 T01940128 10217 20194 51008
Pressure 30.30 in
Visibility 10.0 miles
Clouds Mostly Cloudy 5500 ft
Dew Point 63 °F
Humidity 65%
Rainfall --
Snow Depth Not available.
7:03 AM 5:27 PM
Waxing Gibbous, 87% visible
METAR KMLB 102353Z 04012KT 10SM BKN055 19/13 A3030 RMK AO2 SLP261 T01940128 10217 20194 51008

10-Day Weather Forecast

Almanac

Astronomy

Dec. 10, 2016 Rise Set
Actual Time
Civil Twilight
Nautical Twilight
Astronomical Twilight
Moon
Length of Visible Light
Length of Day
Tomorrow will be .
, % of the Moon is Illuminated

Today's Extremes

State Highs State Lows

Community

WunderPhotos

Upload Photos

1,956,677 photos uploaded!

WunderBlog® & News

Nearby

Air Quality

  Air Quality AQ Index Pollutant
Not available.

Snow Depth

Station Depth Elevation

Earthquake Activity

City Distance Mag. Time & Date
Minimum magnitude displayed is 2.5.

Coastal Water Temperatures

Place Temperature

Stations

Nearby Weather Stations

Station Location Temp. Windchill Dew Point Humidity Wind Precip. Elev Updated Type
                   

Watches & Warnings

There are currently no watches in effect.